Wetter

Link zur aktuellen Windanzeige


Nordholz:

METAR:

2020/02/23 19:20 ETMN 231920Z 30020KT 9999 SCT020CB BKN033 04/01 Q1010 RESHGS BLU

TAF:

2020/02/21 12:37 TAF AMD ETMN 211532Z 2112/2121 25015G28KT 9999 NSW SCT020 BKN035 BKN180 TEMPO 2112/2116 24018G32KT 9999 NSW BKN020 BKN080 TEMPO 2116/2121 23020G35KT 6000 -RA SCT010 BKN020 CANCEL 1600

Wind EDXN:

23.02. 18:50z 280/22G28kt
23.02. 19:00z 310/22G36kt
23.02. 19:10z 300/18G25kt
23.02. 19:20z 280/13G21kt
23.02. 19:30z 280/15G25kt
23.02. 19:40z 280/13G22kt
23.02. 19:50z 290/16G26kt
23.02. 20:00z 290/17G23kt
23.02. 20:10z 290/17G22kt
23.02. 20:20z 280/14G20kt

Bremen:

METAR:

2020/02/23 19:50 EDDW 231950Z 28022KT 9999 -SHRA SCT018 04/02 Q1012 TEMPO 4000 SHRA BKN008CB

TAF:

2020/02/23 18:27 TAF EDDW 231700Z 2318/2418 28015G30KT 9999 SCT020 TEMPO 2318/2320 29020G35KT SHRA BKN013CB BECMG 2320/2324 26011KT BECMG 2408/2411 20010KT BECMG 2411/2414 14012KT BKN012 TEMPO 2413/2418 3500 RA BKN006 PROB40 TEMPO 2413/2418 BKN004 PROB30 TEMPO 2413/2416 2000 RASN BECMG 2416/2418 20011KT

Hamburg:

METAR:

2020/02/23 19:50 EDDH 231950Z 30016KT 9999 -SHRA SCT012CB SCT020 03/01 Q1009 RESHRA NOSIG

TAF:

2020/02/23 18:27 TAF TAF EDDH 231700Z 2318/2424 28015G30KT 9999 SCT015 BKN025 TEMPO 2318/2321 29020G35KT SHRA BKN013CB BECMG 2321/2401 27010KT TEMPO 2401/2404 28015G25KT BECMG 2409/2412 20010KT BECMG 2412/2415 14010KT BKN012 TEMPO 2414/2419 3500 RA BKN006 PROB40 TEMPO 2414/2419 BKN004 PROB40 TEMPO 2415/2418 1000 SN BECMG 2419/2421 20007KT 4000 -DZRA BKN008 TEMPO 2419/2424 1200 DZRA BKN003

Hannover:

METAR:

2020/02/23 19:50 EDDV 231950Z 28015KT 240V300 9999 -SHRA FEW013CB BKN024 05/02 Q1013 TEMPO 31030G45KT 4000 SHRA BKN012

TAF:

2020/02/23 18:27 TAF TAF EDDV 231700Z 2318/2418 28020G35KT 9999 SCT020 BKN025 TEMPO 2318/2321 29025G45KT 4000 SHRA BKN012CB PROB40 TEMPO 2318/2319 29030G50KT BECMG 2320/2323 27015G25KT BECMG 2323/2402 26010KT BECMG 2408/2411 20010KT BECMG 2411/2414 14010KT TEMPO 2413/2418 4000 RA BKN012 PROB30 TEMPO 2415/2418 BKN007 BECMG 2416/2418 20008KT

Wikipedia Artikel: METARTAF

Daten von Aviation Weather Center der NOAA, es kann keine Garantie für Aktualität und Richtigkeit der Daten übernommen werden.

Die Nutzung dieser Daten zur Flugplanung ist nicht zulässig!

Inoffizielle ATIS 🙂